Time;durP1;ratioP1;P1;durP2;ratioP2;P2;SDS_P1;SDS_P2;PMS_P1;PMS_P2;Temp;Humidity;BMP_temperature;BMP_pressure;BME280_temperature;BME280_humidity;BME280_pressure;Samples;Min_cycle;Max_cycle;Signal;HPM_P1;HPM_P2
2021/10/29 00:00:09;;;;;;;31.33;17.27;;;;;;;;;;5054454;28;20406;-64
2021/10/29 00:02:35;;;;;;;23.37;16.33;;;;;;;;;;5062337;28;20411;-64
2021/10/29 00:05:01;;;;;;;20.20;15.60;;;;;;;;;;5074095;28;20417;-64
2021/10/29 00:07:27;;;;;;;19.80;15.33;;;;;;;;;;5074199;28;20401;-64
2021/10/29 00:09:53;;;;;;;19.80;15.17;;;;;;;;;;5073997;28;20493;-64
2021/10/29 00:12:21;;;;;;;33.80;14.70;;;;;;;;;;5072528;28;20436;-64
2021/10/29 00:14:47;;;;;;;22.50;15.57;;;;;;;;;;5073533;28;20463;-64
2021/10/29 00:17:13;;;;;;;17.93;15.23;;;;;;;;;;5061156;28;20777;-64
2021/10/29 00:19:40;;;;;;;19.77;14.50;;;;;;;;;;5053935;28;20413;-64
2021/10/29 00:22:06;;;;;;;21.40;14.93;;;;;;;;;;5053605;28;20402;-64
2021/10/29 00:24:32;;;;;;;18.33;14.17;;;;;;;;;;5053103;28;20429;-66
2021/10/29 00:26:58;;;;;;;20.40;15.93;;;;;;;;;;5053578;28;20465;-66
2021/10/29 00:29:25;;;;;;;22.30;15.67;;;;;;;;;;5053845;28;20402;-64
2021/10/29 00:31:51;;;;;;;19.33;15.50;;;;;;;;;;5053781;28;20406;-64
2021/10/29 00:34:17;;;;;;;23.97;16.40;;;;;;;;;;5053657;28;20457;-64
2021/10/29 00:36:43;;;;;;;25.57;16.83;;;;;;;;;;5052393;28;20449;-64
2021/10/29 00:39:09;;;;;;;25.57;16.83;;;;;;;;;;5053328;28;20398;-64
2021/10/29 00:41:36;;;;;;;24.37;16.43;;;;;;;;;;5053186;28;20492;-64
2021/10/29 00:44:03;;;;;;;22.50;15.50;;;;;;;;;;5065175;28;20432;-64
2021/10/29 00:46:29;;;;;;;27.40;16.63;;;;;;;;;;5053101;28;20464;-65
2021/10/29 00:48:55;;;;;;;26.37;15.47;;;;;;;;;;5053271;28;20773;-66
2021/10/29 00:51:21;;;;;;;41.70;14.80;;;;;;;;;;5053177;28;20424;-65
2021/10/29 00:53:48;;;;;;;22.50;15.30;;;;;;;;;;5053113;28;20452;-64
2021/10/29 00:56:14;;;;;;;23.60;15.27;;;;;;;;;;5053356;28;20979;-64
2021/10/29 00:58:41;;;;;;;21.73;13.60;;;;;;;;;;5053078;28;20407;-64
2021/10/29 01:01:07;;;;;;;24.30;16.20;;;;;;;;;;5053379;28;20453;-64
2021/10/29 01:03:36;;;;;;;25.27;12.40;;;;;;;;;;5052861;28;20417;-64
2021/10/29 01:06:02;;;;;;;25.63;14.60;;;;;;;;;;5053792;28;20422;-65
2021/10/29 01:08:28;;;;;;;15.23;12.20;;;;;;;;;;5053234;28;20774;-64
2021/10/29 01:10:54;;;;;;;15.73;12.37;;;;;;;;;;5052832;28;20413;-64
2021/10/29 01:13:21;;;;;;;32.13;15.50;;;;;;;;;;5052855;28;20430;-64
2021/10/29 01:15:47;;;;;;;18.00;12.70;;;;;;;;;;5053250;28;20496;-64
2021/10/29 01:18:13;;;;;;;17.40;12.63;;;;;;;;;;5053114;28;20816;-66
2021/10/29 01:20:39;;;;;;;20.57;13.07;;;;;;;;;;5052969;28;20432;-66
2021/10/29 01:23:05;;;;;;;19.87;13.10;;;;;;;;;;5053163;28;20879;-66
2021/10/29 01:25:31;;;;;;;18.07;11.60;;;;;;;;;;5052828;28;20760;-66
2021/10/29 01:27:57;;;;;;;18.33;13.43;;;;;;;;;;5053093;28;20865;-64
2021/10/29 01:30:24;;;;;;;20.27;12.90;;;;;;;;;;5052718;28;20433;-64
2021/10/29 01:32:50;;;;;;;19.53;12.67;;;;;;;;;;5052739;28;20471;-64
2021/10/29 01:35:16;;;;;;;18.60;13.10;;;;;;;;;;5053165;28;20453;-64
2021/10/29 01:37:44;;;;;;;16.57;12.60;;;;;;;;;;5064600;28;20425;-64
2021/10/29 01:40:17;;;;;;;17.83;12.10;;;;;;;;;;5076843;28;20400;-64
2021/10/29 01:42:43;;;;;;;20.53;13.23;;;;;;;;;;5076809;28;20385;-64
2021/10/29 01:45:10;;;;;;;17.17;12.67;;;;;;;;;;5064913;28;20432;-64
2021/10/29 01:47:36;;;;;;;15.53;11.27;;;;;;;;;;5056685;28;20408;-64
2021/10/29 01:50:04;;;;;;;15.60;12.53;;;;;;;;;;5056595;28;20401;-64
2021/10/29 01:52:30;;;;;;;16.00;12.37;;;;;;;;;;5056837;28;20393;-64
2021/10/29 01:54:56;;;;;;;16.43;13.00;;;;;;;;;;5056351;28;20481;-64
2021/10/29 01:57:23;;;;;;;19.23;12.57;;;;;;;;;;5056419;28;20909;-64
2021/10/29 01:59:49;;;;;;;18.33;13.60;;;;;;;;;;5056710;28;20408;-64
2021/10/29 02:02:15;;;;;;;18.67;12.83;;;;;;;;;;5061450;28;20452;-64
2021/10/29 02:04:41;;;;;;;25.63;14.30;;;;;;;;;;5076186;28;20454;-64
2021/10/29 02:07:07;;;;;;;17.87;13.40;;;;;;;;;;5076478;28;20401;-64
2021/10/29 02:09:33;;;;;;;17.00;13.07;;;;;;;;;;5074982;28;20778;-64
2021/10/29 02:11:59;;;;;;;28.60;14.50;;;;;;;;;;5076304;28;20485;-64
2021/10/29 02:14:26;;;;;;;42.13;14.03;;;;;;;;;;5075808;28;20547;-64
2021/10/29 02:16:52;;;;;;;24.10;13.70;;;;;;;;;;5075967;28;20473;-64
2021/10/29 02:19:18;;;;;;;17.23;11.67;;;;;;;;;;5076135;28;20500;-64
2021/10/29 02:21:44;;;;;;;16.80;13.50;;;;;;;;;;5076024;28;20494;-64
2021/10/29 02:24:10;;;;;;;22.27;15.60;;;;;;;;;;5075919;28;20809;-64
2021/10/29 02:26:36;;;;;;;19.70;14.57;;;;;;;;;;5075713;28;20467;-64
2021/10/29 02:29:03;;;;;;;19.70;13.90;;;;;;;;;;5075761;28;20451;-64
2021/10/29 02:31:30;;;;;;;21.03;14.00;;;;;;;;;;5074454;28;20401;-64
2021/10/29 02:33:56;;;;;;;22.10;16.30;;;;;;;;;;5075544;28;20514;-64
2021/10/29 02:36:22;;;;;;;19.40;14.27;;;;;;;;;;5075671;28;20419;-64
2021/10/29 02:38:49;;;;;;;23.57;14.70;;;;;;;;;;5075581;28;20487;-64
2021/10/29 02:41:15;;;;;;;23.53;14.30;;;;;;;;;;5074063;28;21019;-64
2021/10/29 02:43:42;;;;;;;21.50;15.23;;;;;;;;;;5075833;28;20806;-64
2021/10/29 02:46:08;;;;;;;19.27;13.03;;;;;;;;;;5075260;28;20841;-64
2021/10/29 02:48:34;;;;;;;23.53;14.73;;;;;;;;;;5075410;28;20489;-64
2021/10/29 02:51:00;;;;;;;21.80;15.03;;;;;;;;;;5075878;28;20853;-64
2021/10/29 02:53:30;;;;;;;20.77;15.10;;;;;;;;;;5075505;28;20408;-64
2021/10/29 02:55:56;;;;;;;16.97;13.47;;;;;;;;;;5075373;28;20417;-64
2021/10/29 02:58:22;;;;;;;18.50;13.33;;;;;;;;;;5075333;28;20393;-64
2021/10/29 03:00:48;;;;;;;20.00;13.57;;;;;;;;;;5075217;28;20897;-64
2021/10/29 03:03:14;;;;;;;19.70;14.87;;;;;;;;;;5061656;28;20467;-64
2021/10/29 03:05:41;;;;;;;20.57;14.20;;;;;;;;;;5055241;28;20910;-64
2021/10/29 03:08:07;;;;;;;18.43;13.93;;;;;;;;;;5054818;28;20394;-63
2021/10/29 03:10:34;;;;;;;18.83;14.00;;;;;;;;;;5065920;28;20509;-65
2021/10/29 03:13:00;;;;;;;14.80;12.03;;;;;;;;;;5055143;28;20394;-64
2021/10/29 03:15:26;;;;;;;15.13;12.33;;;;;;;;;;5070517;28;20469;-66
2021/10/29 03:17:52;;;;;;;16.00;12.33;;;;;;;;;;5074886;28;20897;-64
2021/10/29 03:20:19;;;;;;;15.17;12.27;;;;;;;;;;5075046;28;20857;-65
2021/10/29 03:22:45;;;;;;;15.00;12.97;;;;;;;;;;5075203;28;20404;-64
2021/10/29 03:25:11;;;;;;;17.77;13.10;;;;;;;;;;5075418;28;20433;-64
2021/10/29 03:27:37;;;;;;;15.70;11.63;;;;;;;;;;5074862;28;20484;-64
2021/10/29 03:30:04;;;;;;;18.73;13.00;;;;;;;;;;5074895;28;20396;-64
2021/10/29 03:32:30;;;;;;;14.47;11.67;;;;;;;;;;5074731;28;20393;-65
2021/10/29 03:34:57;;;;;;;15.73;12.30;;;;;;;;;;5074402;28;20447;-65
2021/10/29 03:43:08;;;;;;;12.97;11.57;;;;;;;;;;5054463;28;20385;-65
2021/10/29 03:45:38;;;;;;;12.47;10.30;;;;;;;;;;5054366;28;20481;-65
2021/10/29 03:48:06;;;;;;;12.30;9.23;;;;;;;;;;5054372;28;20394;-65
2021/10/29 03:50:35;;;;;;;13.23;10.73;;;;;;;;;;5054183;28;20500;-65
2021/10/29 03:53:12;;;;;;;11.17;9.60;;;;;;;;;;5054128;28;20918;-65
2021/10/29 03:55:40;;;;;;;11.30;9.27;;;;;;;;;;5053132;28;20833;-65
2021/10/29 03:58:06;;;;;;;15.07;10.50;;;;;;;;;;5053092;28;20414;-65
2021/10/29 04:00:32;;;;;;;18.83;12.30;;;;;;;;;;5057844;28;20948;-64
2021/10/29 04:03:01;;;;;;;9.70;8.70;;;;;;;;;;5073802;28;20409;-64
2021/10/29 04:05:31;;;;;;;12.03;10.00;;;;;;;;;;5073836;28;20424;-64
2021/10/29 04:07:57;;;;;;;13.77;9.33;;;;;;;;;;5074291;28;20428;-65
2021/10/29 04:10:28;;;;;;;12.77;9.67;;;;;;;;;;5074258;28;20389;-65
2021/10/29 04:12:56;;;;;;;12.47;9.67;;;;;;;;;;5074012;28;20409;-65
2021/10/29 04:15:22;;;;;;;10.97;9.70;;;;;;;;;;5073916;28;20461;-65
2021/10/29 04:17:48;;;;;;;11.37;10.17;;;;;;;;;;5056118;28;20417;-65
2021/10/29 04:20:15;;;;;;;11.60;9.47;;;;;;;;;;5073858;28;20405;-65
2021/10/29 04:22:41;;;;;;;10.97;9.53;;;;;;;;;;5072600;28;20781;-65
2021/10/29 04:25:07;;;;;;;12.67;10.00;;;;;;;;;;5073759;28;20425;-65
2021/10/29 04:27:35;;;;;;;11.70;9.67;;;;;;;;;;5073955;28;20420;-65
2021/10/29 04:30:02;;;;;;;13.00;10.13;;;;;;;;;;5073941;28;20890;-65
2021/10/29 04:32:28;;;;;;;11.47;9.33;;;;;;;;;;5073817;28;20732;-65
2021/10/29 04:34:54;;;;;;;10.30;9.20;;;;;;;;;;5073439;28;20441;-65
2021/10/29 04:37:20;;;;;;;12.20;9.47;;;;;;;;;;5073627;28;20723;-65
2021/10/29 04:39:47;;;;;;;12.40;9.60;;;;;;;;;;5073425;28;20448;-65
2021/10/29 04:42:13;;;;;;;13.40;10.60;;;;;;;;;;5057080;28;20488;-65
2021/10/29 04:44:39;;;;;;;11.47;9.93;;;;;;;;;;5053522;28;20430;-65
2021/10/29 04:47:05;;;;;;;14.23;10.00;;;;;;;;;;5053800;28;20397;-65
2021/10/29 04:49:31;;;;;;;11.27;10.07;;;;;;;;;;5053526;28;20499;-65
2021/10/29 04:51:58;;;;;;;15.83;11.73;;;;;;;;;;5053158;28;20394;-65
2021/10/29 04:54:25;;;;;;;10.40;9.30;;;;;;;;;;5053040;28;20508;-65
2021/10/29 04:56:51;;;;;;;11.10;9.30;;;;;;;;;;5052891;28;20475;-65
2021/10/29 04:59:18;;;;;;;12.77;9.47;;;;;;;;;;5053276;28;20756;-65
2021/10/29 05:01:46;;;;;;;11.63;9.90;;;;;;;;;;5053019;28;20416;-65
2021/10/29 05:04:13;;;;;;;11.70;10.03;;;;;;;;;;5053218;28;20393;-65
2021/10/29 05:06:39;;;;;;;11.10;9.83;;;;;;;;;;5052932;28;20417;-65
2021/10/29 05:09:05;;;;;;;10.70;9.40;;;;;;;;;;5053111;28;20398;-65
2021/10/29 05:11:31;;;;;;;16.20;10.17;;;;;;;;;;5052854;28;20408;-65
2021/10/29 05:13:57;;;;;;;10.93;9.43;;;;;;;;;;5052879;28;20466;-65
2021/10/29 05:16:23;;;;;;;13.40;10.40;;;;;;;;;;5052813;28;20417;-65
2021/10/29 05:18:49;;;;;;;11.33;9.93;;;;;;;;;;5053138;28;20493;-65
2021/10/29 05:21:15;;;;;;;11.10;9.07;;;;;;;;;;5052970;28;20397;-65
2021/10/29 05:23:41;;;;;;;12.10;9.80;;;;;;;;;;5067784;28;20413;-65
2021/10/29 05:26:07;;;;;;;14.90;9.80;;;;;;;;;;5079582;22;20393;-68
2021/10/29 05:28:33;;;;;;;14.40;11.10;;;;;;;;;;4979776;28;20771;-67
2021/10/29 05:31:00;;;;;;;14.90;11.47;;;;;;;;;;4993955;28;20452;-67
2021/10/29 05:33:26;;;;;;;13.10;10.03;;;;;;;;;;4989155;28;20413;-66
2021/10/29 05:35:52;;;;;;;12.90;10.87;;;;;;;;;;4991833;28;20562;-66
2021/10/29 05:38:18;;;;;;;13.70;10.90;;;;;;;;;;4979423;28;20448;-66
2021/10/29 05:40:45;;;;;;;13.30;10.73;;;;;;;;;;4974320;28;20482;-66
2021/10/29 05:43:11;;;;;;;14.70;11.00;;;;;;;;;;4973623;28;20405;-66
2021/10/29 05:45:37;;;;;;;12.10;10.50;;;;;;;;;;4973866;28;20406;-66
2021/10/29 05:48:06;;;;;;;12.90;11.43;;;;;;;;;;4973861;28;20422;-66
2021/10/29 05:50:32;;;;;;;13.07;10.70;;;;;;;;;;4986438;28;20420;-66
2021/10/29 05:53:03;;;;;;;14.77;10.13;;;;;;;;;;4992582;28;20404;-66
2021/10/29 05:55:29;;;;;;;13.53;10.70;;;;;;;;;;4993191;28;20451;-66
2021/10/29 05:57:55;;;;;;;12.83;10.47;;;;;;;;;;4993431;28;20420;-66
2021/10/29 06:00:23;;;;;;;15.57;12.17;;;;;;;;;;4992957;28;20404;-66
2021/10/29 06:02:49;;;;;;;14.50;10.77;;;;;;;;;;4992468;28;20400;-66
2021/10/29 06:05:16;;;;;;;13.93;12.23;;;;;;;;;;4992333;28;20419;-66
2021/10/29 06:07:42;;;;;;;14.70;11.23;;;;;;;;;;4992690;28;20421;-66
2021/10/29 06:10:13;;;;;;;12.70;9.90;;;;;;;;;;4992378;28;20439;-66
2021/10/29 06:12:39;;;;;;;16.30;10.97;;;;;;;;;;4992917;28;20389;-66
2021/10/29 06:15:09;;;;;;;13.40;10.37;;;;;;;;;;4992419;28;20456;-66
2021/10/29 06:17:35;;;;;;;12.60;10.40;;;;;;;;;;4990835;28;20420;-67
2021/10/29 06:20:01;;;;;;;13.47;10.20;;;;;;;;;;4992036;28;20392;-67
2021/10/29 06:22:37;;;;;;;15.87;10.70;;;;;;;;;;4993585;28;20400;-67
2021/10/29 06:25:15;;;;;;;12.90;10.43;;;;;;;;;;4995629;28;20915;-67
2021/10/29 06:30:26;;;;;;;13.47;11.13;;;;;;;;;;4995450;28;20379;-66
2021/10/29 06:32:53;;;;;;;15.67;11.70;;;;;;;;;;4996026;28;20806;-66
2021/10/29 06:35:19;;;;;;;20.37;11.40;;;;;;;;;;4993941;28;20448;-66
2021/10/29 06:37:45;;;;;;;15.80;12.03;;;;;;;;;;4995287;28;20428;-67
2021/10/29 06:40:15;;;;;;;13.27;10.23;;;;;;;;;;4995238;28;20405;-66
2021/10/29 06:42:46;;;;;;;18.57;11.77;;;;;;;;;;4995317;28;20395;-66
2021/10/29 06:45:23;;;;;;;16.63;12.10;;;;;;;;;;4995676;28;20395;-67
2021/10/29 06:48:26;;;;;;;15.90;12.83;;;;;;;;;;4995688;28;20432;-67
2021/10/29 07:13:14;;;;;;;17.43;12.20;;;;;;;;;;5005156;28;20933;-66
2021/10/29 07:42:34;;;;;;;14.97;11.60;;;;;;;;;;4991431;28;20815;-68
2021/10/29 07:45:00;;;;;;;18.20;14.27;;;;;;;;;;4973312;28;20396;-66
2021/10/29 07:47:27;;;;;;;15.93;13.83;;;;;;;;;;5033842;28;20512;-65
2021/10/29 07:49:53;;;;;;;20.10;12.77;;;;;;;;;;5004149;28;20463;-65
2021/10/29 07:52:19;;;;;;;19.17;12.70;;;;;;;;;;5026785;28;20409;-67
2021/10/29 07:54:46;;;;;;;18.57;12.63;;;;;;;;;;5010064;28;20543;-67
2021/10/29 07:57:18;;;;;;;15.47;11.80;;;;;;;;;;5015637;28;20431;-67
2021/10/29 07:59:44;;;;;;;16.17;12.27;;;;;;;;;;4992250;28;20514;-69
2021/10/29 08:02:10;;;;;;;17.40;13.00;;;;;;;;;;5004556;28;20504;-71
2021/10/29 08:04:36;;;;;;;14.30;12.73;;;;;;;;;;5039361;28;20417;-71
2021/10/29 08:07:03;;;;;;;17.03;12.97;;;;;;;;;;4992493;28;20425;-68
2021/10/29 08:09:29;;;;;;;14.67;11.97;;;;;;;;;;4992014;28;20405;-68
2021/10/29 08:11:56;;;;;;;17.07;10.90;;;;;;;;;;4996536;28;20483;-67
2021/10/29 08:14:23;;;;;;;14.97;11.40;;;;;;;;;;5042634;28;20460;-68
2021/10/29 08:16:49;;;;;;;14.63;11.20;;;;;;;;;;5054884;28;20444;-68
2021/10/29 08:19:22;;;;;;;12.90;10.10;;;;;;;;;;5075435;28;20752;-70
2021/10/29 08:21:48;;;;;;;14.17;11.43;;;;;;;;;;5035922;28;20409;-67
2021/10/29 08:24:14;;;;;;;12.40;10.07;;;;;;;;;;5059489;28;20412;-64
2021/10/29 08:26:40;;;;;;;12.83;10.07;;;;;;;;;;5026133;28;20468;-66
2021/10/29 08:29:06;;;;;;;14.85;10.30;;;;;;;;;;4994484;28;20433;-70
2021/10/29 08:31:32;;;;;;;13.37;10.90;;;;;;;;;;5030942;28;20198;-65
2021/10/29 08:34:00;;;;;;;12.13;10.10;;;;;;;;;;5054964;28;20956;-67
2021/10/29 08:36:28;;;;;;;16.37;10.90;;;;;;;;;;5066882;28;20429;-68
2021/10/29 08:38:54;;;;;;;12.30;11.00;;;;;;;;;;5061670;28;20417;-68
2021/10/29 08:41:20;;;;;;;12.00;10.30;;;;;;;;;;5052761;28;20405;-66
2021/10/29 08:43:46;;;;;;;12.63;10.23;;;;;;;;;;5072906;28;20480;-66
2021/10/29 08:46:13;;;;;;;15.30;9.83;;;;;;;;;;5073242;28;20413;-66
2021/10/29 08:48:40;;;;;;;15.73;10.40;;;;;;;;;;5073535;28;20396;-68
2021/10/29 08:51:06;;;;;;;11.50;10.30;;;;;;;;;;5073681;28;20400;-67
2021/10/29 08:53:32;;;;;;;13.10;10.83;;;;;;;;;;5073716;28;20393;-67
2021/10/29 08:56:02;;;;;;;13.10;10.17;;;;;;;;;;5073085;28;20476;-68
2021/10/29 08:58:31;;;;;;;13.80;10.70;;;;;;;;;;5073270;28;20487;-67
2021/10/29 09:01:03;;;;;;;12.90;9.73;;;;;;;;;;5073630;28;20444;-66
2021/10/29 09:03:39;;;;;;;13.60;11.53;;;;;;;;;;5073452;28;20430;-67
2021/10/29 09:06:39;;;;;;;11.87;10.27;;;;;;;;;;5073280;28;20472;-67
2021/10/29 09:09:30;;;;;;;11.73;9.90;;;;;;;;;;5073466;28;20464;-66
2021/10/29 09:12:12;;;;;;;11.73;10.43;;;;;;;;;;5073286;28;20473;-66
2021/10/29 09:31:24;;;;;;;11.33;9.90;;;;;;;;;;5073092;28;20448;-66
2021/10/29 09:33:51;;;;;;;13.27;10.87;;;;;;;;;;4990910;28;20460;-67
2021/10/29 09:36:28;;;;;;;11.80;10.53;;;;;;;;;;4990773;28;20417;-67
2021/10/29 09:38:55;;;;;;;14.20;11.93;;;;;;;;;;4990426;28;20377;-67
2021/10/29 09:41:23;;;;;;;11.23;10.03;;;;;;;;;;4990399;28;20401;-67
2021/10/29 09:43:54;;;;;;;12.50;10.60;;;;;;;;;;4989213;28;20911;-67
2021/10/29 09:46:38;;;;;;;13.67;11.43;;;;;;;;;;4990570;28;20463;-67
2021/10/29 09:49:13;;;;;;;14.73;11.83;;;;;;;;;;4990355;28;20535;-67
2021/10/29 09:51:50;;;;;;;14.13;11.23;;;;;;;;;;4990687;28;20482;-67
2021/10/29 09:54:20;;;;;;;13.63;10.40;;;;;;;;;;4990807;28;20509;-67
2021/10/29 09:56:55;;;;;;;11.17;9.93;;;;;;;;;;4991791;28;20495;-67
2021/10/29 09:59:21;;;;;;;12.13;10.83;;;;;;;;;;4994041;28;20384;-67
2021/10/29 10:01:48;;;;;;;12.93;10.27;;;;;;;;;;4993959;28;20473;-67
2021/10/29 10:04:14;;;;;;;12.07;10.00;;;;;;;;;;4993988;28;20408;-67
2021/10/29 10:06:41;;;;;;;11.07;9.80;;;;;;;;;;4993789;28;20498;-67
2021/10/29 10:09:09;;;;;;;11.00;9.80;;;;;;;;;;4993951;28;20458;-66
2021/10/29 10:11:36;;;;;;;11.83;10.63;;;;;;;;;;4993659;28;20455;-67
2021/10/29 10:14:04;;;;;;;13.70;10.00;;;;;;;;;;4993503;28;20448;-67
2021/10/29 10:16:32;;;;;;;12.80;11.30;;;;;;;;;;4993609;28;20446;-67
2021/10/29 10:18:59;;;;;;;12.70;9.50;;;;;;;;;;4993933;28;20492;-67
2021/10/29 10:21:27;;;;;;;10.77;9.20;;;;;;;;;;4993780;28;20450;-67
2021/10/29 10:23:56;;;;;;;13.40;10.47;;;;;;;;;;4994142;28;20400;-67
2021/10/29 10:43:34;;;;;;;12.77;11.47;;;;;;;;;;4993361;28;20423;-67
2021/10/29 10:46:12;;;;;;;13.90;11.33;;;;;;;;;;4993513;28;20761;-67
2021/10/29 10:48:50;;;;;;;11.60;10.40;;;;;;;;;;4993235;28;20389;-65
2021/10/29 10:54:02;;;;;;;11.13;9.93;;;;;;;;;;4992959;28;20396;-66
2021/10/29 10:56:54;;;;;;;11.50;9.90;;;;;;;;;;4992931;28;20408;-65
2021/10/29 11:05:21;;;;;;;11.90;10.27;;;;;;;;;;4993365;28;20388;-67
2021/10/29 11:10:40;;;;;;;14.67;12.57;;;;;;;;;;4993265;28;20879;-66
2021/10/29 11:13:07;;;;;;;14.30;10.63;;;;;;;;;;4992866;28;20940;-66
2021/10/29 11:15:34;;;;;;;12.97;10.77;;;;;;;;;;4992629;28;20440;-66
2021/10/29 11:18:13;;;;;;;12.80;11.07;;;;;;;;;;4992622;28;20416;-66
2021/10/29 11:20:51;;;;;;;12.40;10.20;;;;;;;;;;4992520;28;20389;-66
2021/10/29 11:23:17;;;;;;;13.03;10.53;;;;;;;;;;4992503;28;20460;-66
2021/10/29 11:26:00;;;;;;;13.67;9.83;;;;;;;;;;4992588;28;20841;-66
2021/10/29 11:28:30;;;;;;;11.97;10.83;;;;;;;;;;4993267;28;20400;-67
2021/10/29 11:30:57;;;;;;;13.17;11.37;;;;;;;;;;4992506;28;20381;-67
2021/10/29 11:33:23;;;;;;;11.73;10.50;;;;;;;;;;4992675;28;20388;-67
2021/10/29 11:36:01;;;;;;;12.90;11.33;;;;;;;;;;4992548;28;20467;-66
2021/10/29 11:38:30;;;;;;;11.33;10.13;;;;;;;;;;5007702;28;20424;-66
2021/10/29 11:40:56;;;;;;;11.23;10.10;;;;;;;;;;4992647;28;20413;-67
2021/10/29 11:43:30;;;;;;;15.30;10.63;;;;;;;;;;5007434;28;20779;-67
2021/10/29 11:46:01;;;;;;;12.57;10.27;;;;;;;;;;4992410;28;20405;-67
2021/10/29 11:48:27;;;;;;;13.83;10.60;;;;;;;;;;4992090;28;20408;-67
2021/10/29 11:51:10;;;;;;;14.73;11.50;;;;;;;;;;4992093;28;20392;-67
2021/10/29 11:53:49;;;;;;;13.10;10.00;;;;;;;;;;4992221;28;20408;-68
2021/10/29 11:56:30;;;;;;;16.30;12.27;;;;;;;;;;4991959;28;20440;-68
2021/10/29 12:01:34;;;;;;;14.67;11.10;;;;;;;;;;4992511;28;20442;-67
2021/10/29 12:09:23;;;;;;;12.80;9.97;;;;;;;;;;4992459;28;20397;-66
2021/10/29 12:12:03;;;;;;;13.13;10.33;;;;;;;;;;4993045;28;20400;-66
2021/10/29 12:14:34;;;;;;;12.07;10.80;;;;;;;;;;4992213;28;20440;-66
2021/10/29 12:19:50;;;;;;;12.30;10.27;;;;;;;;;;4991071;28;20426;-67
2021/10/29 12:24:50;;;;;;;15.70;11.53;;;;;;;;;;4972576;28;20417;-67
2021/10/29 12:27:21;;;;;;;12.53;9.80;;;;;;;;;;4972194;28;20802;-67
2021/10/29 12:30:11;;;;;;;14.83;11.13;;;;;;;;;;4972149;28;20390;-67
2021/10/29 12:33:39;;;;;;;17.17;11.03;;;;;;;;;;4972531;28;20412;-67
2021/10/29 13:01:55;;;;;;;15.07;11.90;;;;;;;;;;4995559;28;20424;-67
2021/10/29 13:04:23;;;;;;;14.73;12.23;;;;;;;;;;4972673;28;20394;-67
2021/10/29 13:06:49;;;;;;;14.47;11.63;;;;;;;;;;4972614;28;20426;-67
2021/10/29 13:09:15;;;;;;;14.23;11.80;;;;;;;;;;4972768;28;20905;-67
2021/10/29 13:11:46;;;;;;;14.00;11.97;;;;;;;;;;4972781;28;20471;-67
2021/10/29 13:14:15;;;;;;;14.30;12.77;;;;;;;;;;4972539;28;20456;-67
2021/10/29 13:16:41;;;;;;;18.77;14.00;;;;;;;;;;4972464;28;20436;-67
2021/10/29 13:35:30;;;;;;;15.07;12.40;;;;;;;;;;4995164;28;20440;-67
2021/10/29 13:54:16;;;;;;;18.90;15.40;;;;;;;;;;4994905;28;20458;-65
2021/10/29 13:57:12;;;;;;;19.60;14.87;;;;;;;;;;4994998;28;20887;-67
2021/10/29 14:34:41;;;;;;;17.60;14.80;;;;;;;;;;4994563;28;20451;-66
2021/10/29 15:17:25;;;;;;;23.50;17.63;;;;;;;;;;4994381;28;20781;-66
2021/10/29 15:26:05;;;;;;;23.40;18.07;;;;;;;;;;5033637;28;20399;-66
2021/10/29 15:28:39;;;;;;;21.80;18.07;;;;;;;;;;5033938;28;20457;-66
2021/10/29 15:44:46;;;;;;;26.80;20.30;;;;;;;;;;4974560;28;20402;-67
2021/10/29 15:47:28;;;;;;;23.80;18.10;;;;;;;;;;4974290;28;20417;-67
2021/10/29 15:49:56;;;;;;;26.03;17.90;;;;;;;;;;4974661;28;20789;-67
2021/10/29 15:52:22;;;;;;;23.03;19.30;;;;;;;;;;4974465;28;20771;-67
2021/10/29 15:54:55;;;;;;;23.10;18.50;;;;;;;;;;4973031;28;20879;-67
2021/10/29 15:57:27;;;;;;;25.03;18.77;;;;;;;;;;4974032;28;20435;-67
2021/10/29 16:00:09;;;;;;;26.70;18.63;;;;;;;;;;4973154;28;20451;-67
2021/10/29 16:19:14;;;;;;;22.90;17.57;;;;;;;;;;5033107;28;20470;-66
2021/10/29 16:21:40;;;;;;;26.57;19.33;;;;;;;;;;5006486;28;20957;-68
2021/10/29 16:24:06;;;;;;;27.47;20.53;;;;;;;;;;4981258;28;20429;-67
2021/10/29 16:26:34;;;;;;;25.73;19.70;;;;;;;;;;4991522;28;20448;-70
2021/10/29 16:29:00;;;;;;;23.63;18.13;;;;;;;;;;4975038;28;20440;-68
2021/10/29 16:31:27;;;;;;;25.00;20.47;;;;;;;;;;4972576;28;20822;-69
2021/10/29 16:33:53;;;;;;;23.93;18.93;;;;;;;;;;4985711;28;20440;-68
2021/10/29 16:36:19;;;;;;;23.57;19.03;;;;;;;;;;4984440;28;20487;-69
2021/10/29 16:38:45;;;;;;;24.50;19.70;;;;;;;;;;5004927;28;20448;-67
2021/10/29 16:41:11;;;;;;;26.73;21.63;;;;;;;;;;4991564;28;20954;-67
2021/10/29 16:43:39;;;;;;;25.10;19.43;;;;;;;;;;4991080;28;20405;-68
2021/10/29 16:46:05;;;;;;;27.53;20.47;;;;;;;;;;4993086;28;20845;-68
2021/10/29 16:48:31;;;;;;;26.83;21.83;;;;;;;;;;5029320;28;20462;-67
2021/10/29 16:50:57;;;;;;;27.77;21.20;;;;;;;;;;5067441;28;20405;-68
2021/10/29 16:53:24;;;;;;;28.77;20.77;;;;;;;;;;5026841;28;20480;-68
2021/10/29 16:55:50;;;;;;;28.27;21.93;;;;;;;;;;5047819;28;20475;-68
2021/10/29 16:58:16;;;;;;;29.73;22.50;;;;;;;;;;5056490;28;20433;-69
2021/10/29 17:00:43;;;;;;;27.43;19.50;;;;;;;;;;4980972;28;20417;-68
2021/10/29 17:03:09;;;;;;;28.93;20.20;;;;;;;;;;4993128;28;20423;-68
2021/10/29 17:05:35;;;;;;;28.10;21.53;;;;;;;;;;4989095;28;20432;-67
2021/10/29 17:08:04;;;;;;;25.60;20.37;;;;;;;;;;4999064;28;20909;-67
2021/10/29 17:10:30;;;;;;;27.00;21.90;;;;;;;;;;4972591;28;20492;-67
2021/10/29 17:12:58;;;;;;;31.83;22.57;;;;;;;;;;4972556;28;20412;-67
2021/10/29 17:15:24;;;;;;;32.53;23.23;;;;;;;;;;4972410;28;20523;-66
2021/10/29 17:17:52;;;;;;;31.70;23.83;;;;;;;;;;4972585;28;20449;-66
2021/10/29 17:20:19;;;;;;;31.43;23.27;;;;;;;;;;4972495;28;20402;-66
2021/10/29 17:22:45;;;;;;;28.77;22.47;;;;;;;;;;4972532;28;20413;-67
2021/10/29 17:25:12;;;;;;;29.40;22.33;;;;;;;;;;4972122;28;20401;-66
2021/10/29 17:27:38;;;;;;;33.40;22.53;;;;;;;;;;4973106;28;20485;-68
2021/10/29 17:30:05;;;;;;;35.60;23.57;;;;;;;;;;4971462;28;20436;-68
2021/10/29 17:32:31;;;;;;;35.33;24.00;;;;;;;;;;4971668;28;20410;-68
2021/10/29 17:34:58;;;;;;;33.53;22.23;;;;;;;;;;4971408;28;20449;-68
2021/10/29 17:37:28;;;;;;;32.80;23.27;;;;;;;;;;4971565;28;20475;-68
2021/10/29 17:39:54;;;;;;;30.87;23.03;;;;;;;;;;4971569;28;20495;-68
2021/10/29 17:42:20;;;;;;;34.27;23.93;;;;;;;;;;4971233;28;20406;-68
2021/10/29 17:44:46;;;;;;;33.17;23.33;;;;;;;;;;4971390;28;20753;-67
2021/10/29 17:47:12;;;;;;;30.33;23.27;;;;;;;;;;4971280;28;20807;-68
2021/10/29 17:49:39;;;;;;;36.13;23.37;;;;;;;;;;4971225;28;20405;-67
2021/10/29 17:52:06;;;;;;;32.17;22.50;;;;;;;;;;4971437;28;20491;-68
2021/10/29 17:54:38;;;;;;;32.87;23.10;;;;;;;;;;4984407;28;20464;-68
2021/10/29 17:57:07;;;;;;;32.50;24.07;;;;;;;;;;4990362;28;20424;-67
2021/10/29 17:59:34;;;;;;;32.20;23.50;;;;;;;;;;4990292;28;20449;-68
2021/10/29 18:02:00;;;;;;;34.77;24.47;;;;;;;;;;4990631;28;20508;-67
2021/10/29 18:04:26;;;;;;;30.97;22.50;;;;;;;;;;4990390;28;20412;-68
2021/10/29 18:06:52;;;;;;;33.33;23.40;;;;;;;;;;4990319;28;20516;-67
2021/10/29 18:09:18;;;;;;;30.73;24.67;;;;;;;;;;4990498;28;20823;-67
2021/10/29 18:11:45;;;;;;;27.87;23.07;;;;;;;;;;4990246;28;20893;-67
2021/10/29 18:14:12;;;;;;;33.87;23.67;;;;;;;;;;4990361;28;20782;-67
2021/10/29 18:16:38;;;;;;;31.10;22.70;;;;;;;;;;4990215;28;20473;-67
2021/10/29 18:19:04;;;;;;;33.33;23.47;;;;;;;;;;4993312;28;20488;-68
2021/10/29 18:21:31;;;;;;;30.73;22.63;;;;;;;;;;4990713;28;20425;-67
2021/10/29 18:23:57;;;;;;;29.27;22.30;;;;;;;;;;4973953;28;20406;-67
2021/10/29 18:26:24;;;;;;;31.17;22.00;;;;;;;;;;4973997;28;20542;-68
2021/10/29 18:28:53;;;;;;;31.20;22.57;;;;;;;;;;4974525;28;20409;-67
2021/10/29 18:31:19;;;;;;;27.97;20.93;;;;;;;;;;4974053;28;20417;-67
2021/10/29 18:33:45;;;;;;;31.93;22.37;;;;;;;;;;4974334;28;20419;-68
2021/10/29 18:36:12;;;;;;;30.60;22.30;;;;;;;;;;4973886;28;20461;-68
2021/10/29 18:38:38;;;;;;;31.07;23.80;;;;;;;;;;4974279;28;20906;-68
2021/10/29 18:41:04;;;;;;;31.90;23.00;;;;;;;;;;4974165;28;20405;-68
2021/10/29 18:43:31;;;;;;;35.80;24.83;;;;;;;;;;4974219;28;20436;-68
2021/10/29 18:45:57;;;;;;;36.83;26.27;;;;;;;;;;4974087;28;20416;-68
2021/10/29 18:48:23;;;;;;;36.50;24.53;;;;;;;;;;4974086;28;20413;-67
2021/10/29 18:50:50;;;;;;;41.00;26.17;;;;;;;;;;4973853;28;20493;-68
2021/10/29 18:53:16;;;;;;;33.50;24.20;;;;;;;;;;4973792;28;20413;-68
2021/10/29 18:55:42;;;;;;;28.30;21.30;;;;;;;;;;4973692;28;20457;-67
2021/10/29 18:58:08;;;;;;;39.80;27.70;;;;;;;;;;4973836;28;20425;-67
2021/10/29 19:00:34;;;;;;;40.33;27.50;;;;;;;;;;4973925;28;20406;-69
2021/10/29 19:03:01;;;;;;;39.87;28.53;;;;;;;;;;4973549;28;20413;-67
2021/10/29 19:05:27;;;;;;;35.50;25.10;;;;;;;;;;4974030;28;20401;-67
2021/10/29 19:07:53;;;;;;;35.30;25.77;;;;;;;;;;4973840;28;20793;-67
2021/10/29 19:10:19;;;;;;;36.00;24.93;;;;;;;;;;4973600;28;20547;-68